sensor_id;sensor_type;location;lat;lon;timestamp;temperature;humidity
4699;DHT22;33708;49.466;11.176;2022-10-16T00:01:14;16.20;99.90
4699;DHT22;33708;49.466;11.176;2022-10-16T00:03:41;16.20;99.90
4699;DHT22;33708;49.466;11.176;2022-10-16T00:06:08;16.10;99.90
4699;DHT22;33708;49.466;11.176;2022-10-16T00:08:34;16.00;99.90
4699;DHT22;33708;49.466;11.176;2022-10-16T00:11:13;16.00;99.90
4699;DHT22;33708;49.466;11.176;2022-10-16T00:13:40;16.00;99.90
4699;DHT22;33708;49.466;11.176;2022-10-16T00:16:06;16.10;99.90
4699;DHT22;33708;49.466;11.176;2022-10-16T00:18:32;16.10;99.90
4699;DHT22;33708;49.466;11.176;2022-10-16T00:21:15;16.10;99.90
4699;DHT22;33708;49.466;11.176;2022-10-16T00:23:41;16.10;99.90
4699;DHT22;33708;49.466;11.176;2022-10-16T00:26:09;16.10;99.90
4699;DHT22;33708;49.466;11.176;2022-10-16T00:28:36;16.10;99.90
4699;DHT22;33708;49.466;11.176;2022-10-16T00:31:10;16.20;99.90
4699;DHT22;33708;49.466;11.176;2022-10-16T00:33:38;16.20;99.90
4699;DHT22;33708;49.466;11.176;2022-10-16T00:36:05;16.20;99.90
4699;DHT22;33708;49.466;11.176;2022-10-16T00:38:31;16.20;99.90
4699;DHT22;33708;49.466;11.176;2022-10-16T00:40:57;16.20;99.90
4699;DHT22;33708;49.466;11.176;2022-10-16T00:43:42;16.20;99.90
4699;DHT22;33708;49.466;11.176;2022-10-16T00:48:45;16.30;99.90
4699;DHT22;33708;49.466;11.176;2022-10-16T00:51:12;16.20;99.90
4699;DHT22;33708;49.466;11.176;2022-10-16T00:53:37;16.20;99.90
4699;DHT22;33708;49.466;11.176;2022-10-16T00:56:03;16.20;99.90
4699;DHT22;33708;49.466;11.176;2022-10-16T00:58:29;16.10;99.90
4699;DHT22;33708;49.466;11.176;2022-10-16T01:00:55;16.10;99.90
4699;DHT22;33708;49.466;11.176;2022-10-16T01:03:31;16.00;99.90
4699;DHT22;33708;49.466;11.176;2022-10-16T01:14:38;15.90;99.90
4699;DHT22;33708;49.466;11.176;2022-10-16T01:17:05;15.90;99.90
4699;DHT22;33708;49.466;11.176;2022-10-16T01:22:54;15.90;99.90
4699;DHT22;33708;49.466;11.176;2022-10-16T01:26:10;15.80;99.90
4699;DHT22;33708;49.466;11.176;2022-10-16T01:29:03;15.90;99.90
4699;DHT22;33708;49.466;11.176;2022-10-16T01:31:34;15.90;99.90
4699;DHT22;33708;49.466;11.176;2022-10-16T01:34:18;15.90;99.90
4699;DHT22;33708;49.466;11.176;2022-10-16T01:36:53;16.00;99.90
4699;DHT22;33708;49.466;11.176;2022-10-16T01:39:24;16.10;99.90
4699;DHT22;33708;49.466;11.176;2022-10-16T01:42:12;16.00;99.90
4699;DHT22;33708;49.466;11.176;2022-10-16T01:44:40;15.90;99.90
4699;DHT22;33708;49.466;11.176;2022-10-16T01:47:09;15.90;99.90
4699;DHT22;33708;49.466;11.176;2022-10-16T01:49:38;15.90;99.90
4699;DHT22;33708;49.466;11.176;2022-10-16T01:52:08;16.00;99.90
4699;DHT22;33708;49.466;11.176;2022-10-16T01:54:41;16.00;99.90
4699;DHT22;33708;49.466;11.176;2022-10-16T01:57:08;16.00;99.90
4699;DHT22;33708;49.466;11.176;2022-10-16T01:59:38;16.10;99.90
4699;DHT22;33708;49.466;11.176;2022-10-16T02:02:07;16.00;99.90
4699;DHT22;33708;49.466;11.176;2022-10-16T02:05:02;16.00;99.90
4699;DHT22;33708;49.466;11.176;2022-10-16T02:07:23;16.00;99.90
4699;DHT22;33708;49.466;11.176;2022-10-16T02:09:49;16.10;99.90
4699;DHT22;33708;49.466;11.176;2022-10-16T02:12:22;16.10;99.90
4699;DHT22;33708;49.466;11.176;2022-10-16T02:14:48;16.00;99.90
4699;DHT22;33708;49.466;11.176;2022-10-16T02:17:16;16.00;99.90
4699;DHT22;33708;49.466;11.176;2022-10-16T02:19:44;16.00;99.90
4699;DHT22;33708;49.466;11.176;2022-10-16T02:22:27;16.00;99.90
4699;DHT22;33708;49.466;11.176;2022-10-16T02:27:49;16.00;99.90
4699;DHT22;33708;49.466;11.176;2022-10-16T02:30:25;15.90;99.90
4699;DHT22;33708;49.466;11.176;2022-10-16T02:32:52;15.90;99.90
4699;DHT22;33708;49.466;11.176;2022-10-16T02:35:20;16.00;99.90
4699;DHT22;33708;49.466;11.176;2022-10-16T02:37:47;15.90;99.90
4699;DHT22;33708;49.466;11.176;2022-10-16T02:40:14;15.90;99.90
4699;DHT22;33708;49.466;11.176;2022-10-16T02:42:40;15.90;99.90
4699;DHT22;33708;49.466;11.176;2022-10-16T02:45:08;15.90;99.90
4699;DHT22;33708;49.466;11.176;2022-10-16T02:47:34;15.90;99.90
4699;DHT22;33708;49.466;11.176;2022-10-16T02:50:00;16.00;99.90
4699;DHT22;33708;49.466;11.176;2022-10-16T02:52:26;16.00;99.90
4699;DHT22;33708;49.466;11.176;2022-10-16T02:54:52;16.00;99.90
4699;DHT22;33708;49.466;11.176;2022-10-16T02:57:17;16.00;99.90
4699;DHT22;33708;49.466;11.176;2022-10-16T02:59:43;16.00;99.90
4699;DHT22;33708;49.466;11.176;2022-10-16T03:02:09;15.90;99.90
4699;DHT22;33708;49.466;11.176;2022-10-16T03:04:35;15.90;99.90
4699;DHT22;33708;49.466;11.176;2022-10-16T03:07:01;16.00;99.90
4699;DHT22;33708;49.466;11.176;2022-10-16T03:09:26;15.90;99.90
4699;DHT22;33708;49.466;11.176;2022-10-16T03:11:52;15.90;99.90
4699;DHT22;33708;49.466;11.176;2022-10-16T03:14:17;16.00;99.90
4699;DHT22;33708;49.466;11.176;2022-10-16T03:16:43;16.10;99.90
4699;DHT22;33708;49.466;11.176;2022-10-16T03:19:09;16.00;99.90
4699;DHT22;33708;49.466;11.176;2022-10-16T03:21:34;16.00;99.90
4699;DHT22;33708;49.466;11.176;2022-10-16T03:24:00;16.10;99.90
4699;DHT22;33708;49.466;11.176;2022-10-16T03:26:25;16.10;99.90
4699;DHT22;33708;49.466;11.176;2022-10-16T03:28:51;16.20;99.90
4699;DHT22;33708;49.466;11.176;2022-10-16T03:31:16;16.20;99.90
4699;DHT22;33708;49.466;11.176;2022-10-16T03:33:42;16.30;99.90
4699;DHT22;33708;49.466;11.176;2022-10-16T03:36:08;16.30;99.90
4699;DHT22;33708;49.466;11.176;2022-10-16T03:38:33;16.20;99.90
4699;DHT22;33708;49.466;11.176;2022-10-16T03:40:59;16.20;99.90
4699;DHT22;33708;49.466;11.176;2022-10-16T03:43:25;16.10;99.90
4699;DHT22;33708;49.466;11.176;2022-10-16T03:45:51;16.10;99.90
4699;DHT22;33708;49.466;11.176;2022-10-16T03:48:18;16.10;99.90
4699;DHT22;33708;49.466;11.176;2022-10-16T03:50:43;16.00;99.90
4699;DHT22;33708;49.466;11.176;2022-10-16T03:53:09;16.10;99.90
4699;DHT22;33708;49.466;11.176;2022-10-16T03:55:35;16.10;99.90
4699;DHT22;33708;49.466;11.176;2022-10-16T03:58:01;16.10;99.90
4699;DHT22;33708;49.466;11.176;2022-10-16T04:00:27;16.10;99.90
4699;DHT22;33708;49.466;11.176;2022-10-16T04:02:53;16.10;99.90
4699;DHT22;33708;49.466;11.176;2022-10-16T04:05:18;16.10;99.90
4699;DHT22;33708;49.466;11.176;2022-10-16T04:07:44;16.10;99.90
4699;DHT22;33708;49.466;11.176;2022-10-16T04:10:09;16.10;99.90
4699;DHT22;33708;49.466;11.176;2022-10-16T04:12:35;16.10;99.90
4699;DHT22;33708;49.466;11.176;2022-10-16T04:15:01;16.10;99.90
4699;DHT22;33708;49.466;11.176;2022-10-16T04:17:27;16.10;99.90
4699;DHT22;33708;49.466;11.176;2022-10-16T04:19:52;16.20;99.90
4699;DHT22;33708;49.466;11.176;2022-10-16T04:22:18;16.20;99.90
4699;DHT22;33708;49.466;11.176;2022-10-16T04:24:43;16.20;99.90
4699;DHT22;33708;49.466;11.176;2022-10-16T04:27:09;16.10;99.90
4699;DHT22;33708;49.466;11.176;2022-10-16T04:29:35;16.00;99.90
4699;DHT22;33708;49.466;11.176;2022-10-16T04:32:00;16.10;99.90
4699;DHT22;33708;49.466;11.176;2022-10-16T04:34:26;16.00;99.90
4699;DHT22;33708;49.466;11.176;2022-10-16T04:36:51;15.90;99.90
4699;DHT22;33708;49.466;11.176;2022-10-16T04:39:17;15.90;99.90
4699;DHT22;33708;49.466;11.176;2022-10-16T04:41:43;15.90;99.90
4699;DHT22;33708;49.466;11.176;2022-10-16T04:44:09;15.90;99.90
4699;DHT22;33708;49.466;11.176;2022-10-16T04:46:34;15.90;99.90
4699;DHT22;33708;49.466;11.176;2022-10-16T04:49:00;15.80;99.90
4699;DHT22;33708;49.466;11.176;2022-10-16T04:51:26;15.70;99.90
4699;DHT22;33708;49.466;11.176;2022-10-16T04:53:53;15.70;99.90
4699;DHT22;33708;49.466;11.176;2022-10-16T04:56:19;15.80;99.90
4699;DHT22;33708;49.466;11.176;2022-10-16T04:58:46;15.70;99.90
4699;DHT22;33708;49.466;11.176;2022-10-16T05:01:12;15.70;99.90
4699;DHT22;33708;49.466;11.176;2022-10-16T05:03:37;15.70;99.90
4699;DHT22;33708;49.466;11.176;2022-10-16T05:06:05;15.70;99.90
4699;DHT22;33708;49.466;11.176;2022-10-16T05:08:31;15.70;99.90
4699;DHT22;33708;49.466;11.176;2022-10-16T05:10:57;15.70;99.90
4699;DHT22;33708;49.466;11.176;2022-10-16T05:13:22;15.70;99.90
4699;DHT22;33708;49.466;11.176;2022-10-16T05:15:49;15.70;99.90
4699;DHT22;33708;49.466;11.176;2022-10-16T05:18:15;15.60;99.90
4699;DHT22;33708;49.466;11.176;2022-10-16T05:20:41;15.50;99.90
4699;DHT22;33708;49.466;11.176;2022-10-16T05:23:07;15.60;99.90
4699;DHT22;33708;49.466;11.176;2022-10-16T05:25:35;15.60;99.90
4699;DHT22;33708;49.466;11.176;2022-10-16T05:28:01;15.60;99.90
4699;DHT22;33708;49.466;11.176;2022-10-16T05:30:27;15.60;99.90
4699;DHT22;33708;49.466;11.176;2022-10-16T05:32:52;15.60;99.90
4699;DHT22;33708;49.466;11.176;2022-10-16T05:35:19;15.40;99.90
4699;DHT22;33708;49.466;11.176;2022-10-16T05:37:45;15.40;99.90
4699;DHT22;33708;49.466;11.176;2022-10-16T05:40:11;15.20;99.90
4699;DHT22;33708;49.466;11.176;2022-10-16T05:42:38;15.30;99.90
4699;DHT22;33708;49.466;11.176;2022-10-16T05:45:05;15.30;99.90
4699;DHT22;33708;49.466;11.176;2022-10-16T05:47:31;15.30;99.90
4699;DHT22;33708;49.466;11.176;2022-10-16T05:49:57;15.50;99.90
4699;DHT22;33708;49.466;11.176;2022-10-16T05:52:23;15.50;99.90
4699;DHT22;33708;49.466;11.176;2022-10-16T05:54:48;15.40;99.90
4699;DHT22;33708;49.466;11.176;2022-10-16T05:57:14;15.50;99.90
4699;DHT22;33708;49.466;11.176;2022-10-16T05:59:40;15.50;99.90
4699;DHT22;33708;49.466;11.176;2022-10-16T06:02:07;15.60;99.90
4699;DHT22;33708;49.466;11.176;2022-10-16T06:04:33;15.60;99.90
4699;DHT22;33708;49.466;11.176;2022-10-16T06:06:59;15.70;99.90
4699;DHT22;33708;49.466;11.176;2022-10-16T06:09:27;15.80;99.90
4699;DHT22;33708;49.466;11.176;2022-10-16T06:11:53;16.00;99.90
4699;DHT22;33708;49.466;11.176;2022-10-16T06:14:18;16.10;99.90
4699;DHT22;33708;49.466;11.176;2022-10-16T06:16:44;16.00;99.90
4699;DHT22;33708;49.466;11.176;2022-10-16T06:19:09;16.20;99.90
4699;DHT22;33708;49.466;11.176;2022-10-16T06:21:35;16.30;99.90
4699;DHT22;33708;49.466;11.176;2022-10-16T06:24:01;16.40;99.90
4699;DHT22;33708;49.466;11.176;2022-10-16T06:26:28;16.50;99.90
4699;DHT22;33708;49.466;11.176;2022-10-16T06:28:58;16.50;99.90
4699;DHT22;33708;49.466;11.176;2022-10-16T06:31:25;16.60;99.90
4699;DHT22;33708;49.466;11.176;2022-10-16T06:33:56;16.80;99.90
4699;DHT22;33708;49.466;11.176;2022-10-16T06:36:23;17.20;99.90
4699;DHT22;33708;49.466;11.176;2022-10-16T06:38:48;17.40;99.90
4699;DHT22;33708;49.466;11.176;2022-10-16T06:41:17;17.70;99.90
4699;DHT22;33708;49.466;11.176;2022-10-16T06:43:42;18.60;99.90
4699;DHT22;33708;49.466;11.176;2022-10-16T06:46:11;18.40;99.90
4699;DHT22;33708;49.466;11.176;2022-10-16T06:48:37;19.80;99.90
4699;DHT22;33708;49.466;11.176;2022-10-16T06:51:11;20.40;99.90
4699;DHT22;33708;49.466;11.176;2022-10-16T06:53:40;24.20;99.90
4699;DHT22;33708;49.466;11.176;2022-10-16T06:56:15;25.30;99.90
4699;DHT22;33708;49.466;11.176;2022-10-16T06:58:42;23.20;91.30
4699;DHT22;33708;49.466;11.176;2022-10-16T07:01:08;21.50;94.10
4699;DHT22;33708;49.466;11.176;2022-10-16T07:03:36;20.60;98.30
4699;DHT22;33708;49.466;11.176;2022-10-16T07:06:04;19.90;98.30
4699;DHT22;33708;49.466;11.176;2022-10-16T07:08:34;19.70;99.90
4699;DHT22;33708;49.466;11.176;2022-10-16T07:11:05;19.00;99.90
4699;DHT22;33708;49.466;11.176;2022-10-16T07:13:35;18.80;99.90
4699;DHT22;33708;49.466;11.176;2022-10-16T07:16:13;18.60;99.90
4699;DHT22;33708;49.466;11.176;2022-10-16T07:18:38;18.50;99.90
4699;DHT22;33708;49.466;11.176;2022-10-16T07:21:07;18.50;99.90
4699;DHT22;33708;49.466;11.176;2022-10-16T07:23:33;18.30;99.90
4699;DHT22;33708;49.466;11.176;2022-10-16T07:25:59;18.30;99.90
4699;DHT22;33708;49.466;11.176;2022-10-16T07:28:25;18.30;99.90
4699;DHT22;33708;49.466;11.176;2022-10-16T07:30:50;18.30;99.90
4699;DHT22;33708;49.466;11.176;2022-10-16T07:33:16;18.10;99.90
4699;DHT22;33708;49.466;11.176;2022-10-16T07:35:52;18.40;99.90
4699;DHT22;33708;49.466;11.176;2022-10-16T07:38:18;18.30;99.90
4699;DHT22;33708;49.466;11.176;2022-10-16T07:40:44;18.10;99.90
4699;DHT22;33708;49.466;11.176;2022-10-16T07:43:10;18.00;99.90
4699;DHT22;33708;49.466;11.176;2022-10-16T07:45:36;17.90;99.90
4699;DHT22;33708;49.466;11.176;2022-10-16T07:48:01;17.90;99.90
4699;DHT22;33708;49.466;11.176;2022-10-16T07:50:27;17.80;99.90
4699;DHT22;33708;49.466;11.176;2022-10-16T07:52:53;17.90;99.90
4699;DHT22;33708;49.466;11.176;2022-10-16T07:55:18;17.70;99.90
4699;DHT22;33708;49.466;11.176;2022-10-16T07:57:44;17.70;99.90
4699;DHT22;33708;49.466;11.176;2022-10-16T08:00:10;17.90;99.90
4699;DHT22;33708;49.466;11.176;2022-10-16T08:02:40;18.10;99.90
4699;DHT22;33708;49.466;11.176;2022-10-16T08:05:06;18.10;99.90
4699;DHT22;33708;49.466;11.176;2022-10-16T08:07:32;18.50;99.90
4699;DHT22;33708;49.466;11.176;2022-10-16T08:09:58;18.80;99.90
4699;DHT22;33708;49.466;11.176;2022-10-16T08:12:27;19.00;99.90
4699;DHT22;33708;49.466;11.176;2022-10-16T08:14:52;18.80;99.90
4699;DHT22;33708;49.466;11.176;2022-10-16T08:17:18;19.10;99.90
4699;DHT22;33708;49.466;11.176;2022-10-16T08:19:45;19.20;99.90
4699;DHT22;33708;49.466;11.176;2022-10-16T08:22:11;19.10;99.90
4699;DHT22;33708;49.466;11.176;2022-10-16T08:24:36;19.40;99.90
4699;DHT22;33708;49.466;11.176;2022-10-16T08:27:02;19.40;99.90
4699;DHT22;33708;49.466;11.176;2022-10-16T08:29:28;19.10;99.90
4699;DHT22;33708;49.466;11.176;2022-10-16T08:31:54;19.30;99.90
4699;DHT22;33708;49.466;11.176;2022-10-16T08:34:19;19.20;99.90
4699;DHT22;33708;49.466;11.176;2022-10-16T08:36:45;19.30;99.90
4699;DHT22;33708;49.466;11.176;2022-10-16T08:39:10;19.40;99.90
4699;DHT22;33708;49.466;11.176;2022-10-16T08:47:32;19.80;99.90
4699;DHT22;33708;49.466;11.176;2022-10-16T08:50:10;19.90;99.90
4699;DHT22;33708;49.466;11.176;2022-10-16T08:52:40;20.00;99.90
4699;DHT22;33708;49.466;11.176;2022-10-16T08:55:38;20.50;99.90
4699;DHT22;33708;49.466;11.176;2022-10-16T08:58:30;20.90;99.90
4699;DHT22;33708;49.466;11.176;2022-10-16T09:01:03;21.30;99.90
4699;DHT22;33708;49.466;11.176;2022-10-16T09:18:07;21.80;91.20
4699;DHT22;33708;49.466;11.176;2022-10-16T09:23:27;22.30;90.20
4699;DHT22;33708;49.466;11.176;2022-10-16T09:25:53;22.20;81.80
4699;DHT22;33708;49.466;11.176;2022-10-16T09:28:20;22.50;81.20
4699;DHT22;33708;49.466;11.176;2022-10-16T09:30:46;22.60;77.50
4699;DHT22;33708;49.466;11.176;2022-10-16T09:33:14;23.00;76.00
4699;DHT22;33708;49.466;11.176;2022-10-16T09:35:46;23.30;72.50
4699;DHT22;33708;49.466;11.176;2022-10-16T09:38:24;23.10;71.20
4699;DHT22;33708;49.466;11.176;2022-10-16T09:40:50;22.80;65.80
4699;DHT22;33708;49.466;11.176;2022-10-16T09:43:21;22.20;65.50
4699;DHT22;33708;49.466;11.176;2022-10-16T09:46:06;22.10;69.80
4699;DHT22;33708;49.466;11.176;2022-10-16T09:48:43;21.70;70.20
4699;DHT22;33708;49.466;11.176;2022-10-16T09:53:55;20.80;79.40
4699;DHT22;33708;49.466;11.176;2022-10-16T09:56:23;20.60;76.90
4699;DHT22;33708;49.466;11.176;2022-10-16T09:58:51;20.60;83.40
4699;DHT22;33708;49.466;11.176;2022-10-16T10:01:19;20.40;79.70
4699;DHT22;33708;49.466;11.176;2022-10-16T10:03:45;20.20;80.80
4699;DHT22;33708;49.466;11.176;2022-10-16T10:09:06;20.10;82.90
4699;DHT22;33708;49.466;11.176;2022-10-16T10:12:03;20.20;83.70
4699;DHT22;33708;49.466;11.176;2022-10-16T10:14:40;20.50;88.80
4699;DHT22;33708;49.466;11.176;2022-10-16T10:17:12;20.80;87.40
4699;DHT22;33708;49.466;11.176;2022-10-16T10:19:43;20.90;78.30
4699;DHT22;33708;49.466;11.176;2022-10-16T10:22:32;20.90;80.60
4699;DHT22;33708;49.466;11.176;2022-10-16T10:30:41;22.50;68.70
4699;DHT22;33708;49.466;11.176;2022-10-16T10:36:22;23.10;65.00
4699;DHT22;33708;49.466;11.176;2022-10-16T10:39:16;22.80;57.40
4699;DHT22;33708;49.466;11.176;2022-10-16T10:58:26;24.40;45.00
4699;DHT22;33708;49.466;11.176;2022-10-16T11:01:15;23.90;44.10
4699;DHT22;33708;49.466;11.176;2022-10-16T11:08:52;23.80;42.10
4699;DHT22;33708;49.466;11.176;2022-10-16T11:11:30;23.60;40.90
4699;DHT22;33708;49.466;11.176;2022-10-16T11:14:03;23.40;40.20
4699;DHT22;33708;49.466;11.176;2022-10-16T11:16:59;23.30;42.70
4699;DHT22;33708;49.466;11.176;2022-10-16T11:22:17;23.40;44.90
4699;DHT22;33708;49.466;11.176;2022-10-16T11:28:03;23.60;38.80
4699;DHT22;33708;49.466;11.176;2022-10-16T11:30:38;23.80;34.30
4699;DHT22;33708;49.466;11.176;2022-10-16T11:38:41;23.80;34.30
4699;DHT22;33708;49.466;11.176;2022-10-16T11:46:24;23.70;35.30
4699;DHT22;33708;49.466;11.176;2022-10-16T11:49:09;23.70;34.90
4699;DHT22;33708;49.466;11.176;2022-10-16T11:51:50;23.80;41.60
4699;DHT22;33708;49.466;11.176;2022-10-16T11:54:38;24.10;34.60
4699;DHT22;33708;49.466;11.176;2022-10-16T11:57:16;24.50;36.40
4699;DHT22;33708;49.466;11.176;2022-10-16T12:08:12;24.00;28.20
4699;DHT22;33708;49.466;11.176;2022-10-16T12:10:40;23.90;29.50
4699;DHT22;33708;49.466;11.176;2022-10-16T12:13:29;23.80;27.40
4699;DHT22;33708;49.466;11.176;2022-10-16T12:16:24;23.70;30.60
4699;DHT22;33708;49.466;11.176;2022-10-16T12:19:12;23.20;27.00
4699;DHT22;33708;49.466;11.176;2022-10-16T12:21:39;22.70;26.10
4699;DHT22;33708;49.466;11.176;2022-10-16T12:24:05;22.40;25.70
4699;DHT22;33708;49.466;11.176;2022-10-16T12:26:38;22.20;29.60
4699;DHT22;33708;49.466;11.176;2022-10-16T12:29:28;22.50;30.00
4699;DHT22;33708;49.466;11.176;2022-10-16T12:31:55;22.50;30.50
4699;DHT22;33708;49.466;11.176;2022-10-16T12:34:32;22.40;28.50
4699;DHT22;33708;49.466;11.176;2022-10-16T12:37:11;22.40;30.30
4699;DHT22;33708;49.466;11.176;2022-10-16T12:39:38;22.40;30.00
4699;DHT22;33708;49.466;11.176;2022-10-16T12:42:19;22.50;29.70
4699;DHT22;33708;49.466;11.176;2022-10-16T12:44:45;22.70;32.70
4699;DHT22;33708;49.466;11.176;2022-10-16T12:49:58;22.20;29.80
4699;DHT22;33708;49.466;11.176;2022-10-16T12:52:38;22.20;31.70
4699;DHT22;33708;49.466;11.176;2022-10-16T12:55:06;22.30;34.30
4699;DHT22;33708;49.466;11.176;2022-10-16T13:00:50;22.60;36.00
4699;DHT22;33708;49.466;11.176;2022-10-16T13:06:23;22.70;28.90
4699;DHT22;33708;49.466;11.176;2022-10-16T13:22:58;24.20;27.00
4699;DHT22;33708;49.466;11.176;2022-10-16T13:28:32;24.70;25.90
4699;DHT22;33708;49.466;11.176;2022-10-16T13:30:59;24.70;20.10
4699;DHT22;33708;49.466;11.176;2022-10-16T13:33:36;24.40;19.80
4699;DHT22;33708;49.466;11.176;2022-10-16T13:36:03;24.20;18.80
4699;DHT22;33708;49.466;11.176;2022-10-16T13:38:36;24.20;18.40
4699;DHT22;33708;49.466;11.176;2022-10-16T13:41:13;23.80;16.80
4699;DHT22;33708;49.466;11.176;2022-10-16T13:43:52;23.60;16.70
4699;DHT22;33708;49.466;11.176;2022-10-16T13:46:21;23.10;18.10
4699;DHT22;33708;49.466;11.176;2022-10-16T13:49:02;22.70;22.60
4699;DHT22;33708;49.466;11.176;2022-10-16T13:51:28;22.90;24.70
4699;DHT22;33708;49.466;11.176;2022-10-16T13:53:55;23.30;22.70
4699;DHT22;33708;49.466;11.176;2022-10-16T13:56:28;23.60;22.10
4699;DHT22;33708;49.466;11.176;2022-10-16T13:59:03;23.70;23.00
4699;DHT22;33708;49.466;11.176;2022-10-16T14:01:34;23.60;22.10
4699;DHT22;33708;49.466;11.176;2022-10-16T14:04:05;23.60;18.30
4699;DHT22;33708;49.466;11.176;2022-10-16T14:06:32;23.60;19.30
4699;DHT22;33708;49.466;11.176;2022-10-16T14:09:27;23.60;20.70
4699;DHT22;33708;49.466;11.176;2022-10-16T14:11:59;23.20;21.50
4699;DHT22;33708;49.466;11.176;2022-10-16T14:14:39;23.10;20.50
4699;DHT22;33708;49.466;11.176;2022-10-16T14:17:05;23.10;21.40
4699;DHT22;33708;49.466;11.176;2022-10-16T14:19:31;23.10;19.60
4699;DHT22;33708;49.466;11.176;2022-10-16T14:21:58;23.20;19.40
4699;DHT22;33708;49.466;11.176;2022-10-16T14:24:33;23.20;20.00
4699;DHT22;33708;49.466;11.176;2022-10-16T14:27:00;23.10;18.10
4699;DHT22;33708;49.466;11.176;2022-10-16T14:29:28;23.00;19.30
4699;DHT22;33708;49.466;11.176;2022-10-16T14:32:00;23.00;20.20
4699;DHT22;33708;49.466;11.176;2022-10-16T14:37:08;22.70;21.70
4699;DHT22;33708;49.466;11.176;2022-10-16T14:39:40;22.50;22.50
4699;DHT22;33708;49.466;11.176;2022-10-16T14:42:14;22.30;20.40
4699;DHT22;33708;49.466;11.176;2022-10-16T14:44:41;22.20;25.50
4699;DHT22;33708;49.466;11.176;2022-10-16T14:47:09;21.90;26.70
4699;DHT22;33708;49.466;11.176;2022-10-16T14:49:35;21.80;29.10
4699;DHT22;33708;49.466;11.176;2022-10-16T14:52:01;21.70;29.90
4699;DHT22;33708;49.466;11.176;2022-10-16T14:54:27;21.50;31.80
4699;DHT22;33708;49.466;11.176;2022-10-16T14:56:57;21.40;34.80
4699;DHT22;33708;49.466;11.176;2022-10-16T15:01:52;21.30;38.70
4699;DHT22;33708;49.466;11.176;2022-10-16T15:04:18;21.40;47.50
4699;DHT22;33708;49.466;11.176;2022-10-16T15:06:44;21.40;47.50
4699;DHT22;33708;49.466;11.176;2022-10-16T15:09:09;21.50;48.20
4699;DHT22;33708;49.466;11.176;2022-10-16T15:11:35;21.50;63.50
4699;DHT22;33708;49.466;11.176;2022-10-16T15:14:02;21.40;49.30
4699;DHT22;33708;49.466;11.176;2022-10-16T15:16:28;21.20;58.40
4699;DHT22;33708;49.466;11.176;2022-10-16T15:18:54;21.10;59.30
4699;DHT22;33708;49.466;11.176;2022-10-16T15:21:38;21.00;64.40
4699;DHT22;33708;49.466;11.176;2022-10-16T15:24:09;20.80;67.80
4699;DHT22;33708;49.466;11.176;2022-10-16T15:26:36;20.60;72.80
4699;DHT22;33708;49.466;11.176;2022-10-16T15:29:02;20.40;78.30
4699;DHT22;33708;49.466;11.176;2022-10-16T15:31:27;20.20;83.20
4699;DHT22;33708;49.466;11.176;2022-10-16T15:33:54;20.00;90.30
4699;DHT22;33708;49.466;11.176;2022-10-16T15:36:28;19.90;94.00
4699;DHT22;33708;49.466;11.176;2022-10-16T15:38:54;19.90;97.40
4699;DHT22;33708;49.466;11.176;2022-10-16T15:41:21;19.80;99.90
4699;DHT22;33708;49.466;11.176;2022-10-16T15:43:48;19.80;99.90
4699;DHT22;33708;49.466;11.176;2022-10-16T15:46:17;19.80;99.90
4699;DHT22;33708;49.466;11.176;2022-10-16T15:48:43;19.80;99.90
4699;DHT22;33708;49.466;11.176;2022-10-16T15:51:08;19.80;99.90
4699;DHT22;33708;49.466;11.176;2022-10-16T15:53:34;19.70;99.90
4699;DHT22;33708;49.466;11.176;2022-10-16T15:56:08;19.60;99.90
4699;DHT22;33708;49.466;11.176;2022-10-16T15:58:34;19.50;99.90
4699;DHT22;33708;49.466;11.176;2022-10-16T16:01:00;19.50;99.90
4699;DHT22;33708;49.466;11.176;2022-10-16T16:03:27;19.50;99.90
4699;DHT22;33708;49.466;11.176;2022-10-16T16:05:54;19.40;99.90
4699;DHT22;33708;49.466;11.176;2022-10-16T16:08:20;19.20;99.90
4699;DHT22;33708;49.466;11.176;2022-10-16T16:11:00;19.10;99.90
4699;DHT22;33708;49.466;11.176;2022-10-16T16:13:26;19.00;99.90
4699;DHT22;33708;49.466;11.176;2022-10-16T16:15:52;19.00;99.90
4699;DHT22;33708;49.466;11.176;2022-10-16T16:18:18;18.90;99.90
4699;DHT22;33708;49.466;11.176;2022-10-16T16:20:43;18.90;99.90
4699;DHT22;33708;49.466;11.176;2022-10-16T16:23:09;18.80;99.90
4699;DHT22;33708;49.466;11.176;2022-10-16T16:25:34;18.70;99.90
4699;DHT22;33708;49.466;11.176;2022-10-16T16:28:00;18.70;99.90
4699;DHT22;33708;49.466;11.176;2022-10-16T16:30:26;18.60;99.90
4699;DHT22;33708;49.466;11.176;2022-10-16T16:32:51;18.70;99.90
4699;DHT22;33708;49.466;11.176;2022-10-16T16:35:17;18.70;99.90
4699;DHT22;33708;49.466;11.176;2022-10-16T16:37:43;18.70;99.90
4699;DHT22;33708;49.466;11.176;2022-10-16T16:40:08;18.80;99.90
4699;DHT22;33708;49.466;11.176;2022-10-16T16:42:34;18.70;99.90
4699;DHT22;33708;49.466;11.176;2022-10-16T16:44:59;18.70;99.90
4699;DHT22;33708;49.466;11.176;2022-10-16T16:47:25;18.60;99.90
4699;DHT22;33708;49.466;11.176;2022-10-16T16:49:51;18.70;99.90
4699;DHT22;33708;49.466;11.176;2022-10-16T16:52:17;18.60;99.90
4699;DHT22;33708;49.466;11.176;2022-10-16T16:54:43;18.50;99.90
4699;DHT22;33708;49.466;11.176;2022-10-16T16:57:10;18.50;99.90
4699;DHT22;33708;49.466;11.176;2022-10-16T16:59:35;18.50;99.90
4699;DHT22;33708;49.466;11.176;2022-10-16T17:02:02;18.40;99.90
4699;DHT22;33708;49.466;11.176;2022-10-16T17:04:28;18.30;99.90
4699;DHT22;33708;49.466;11.176;2022-10-16T17:06:54;18.30;99.90
4699;DHT22;33708;49.466;11.176;2022-10-16T17:09:20;18.40;99.90
4699;DHT22;33708;49.466;11.176;2022-10-16T17:11:45;18.30;99.90
4699;DHT22;33708;49.466;11.176;2022-10-16T17:14:13;18.30;99.90
4699;DHT22;33708;49.466;11.176;2022-10-16T17:16:39;18.30;99.90
4699;DHT22;33708;49.466;11.176;2022-10-16T17:19:14;18.30;99.90
4699;DHT22;33708;49.466;11.176;2022-10-16T17:21:41;18.30;99.90
4699;DHT22;33708;49.466;11.176;2022-10-16T17:24:07;18.20;99.90
4699;DHT22;33708;49.466;11.176;2022-10-16T17:26:33;18.20;99.90
4699;DHT22;33708;49.466;11.176;2022-10-16T17:29:03;18.10;99.90
4699;DHT22;33708;49.466;11.176;2022-10-16T17:31:34;18.10;99.90
4699;DHT22;33708;49.466;11.176;2022-10-16T17:34:02;18.10;99.90
4699;DHT22;33708;49.466;11.176;2022-10-16T17:36:30;18.10;99.90
4699;DHT22;33708;49.466;11.176;2022-10-16T17:39:06;18.00;99.90
4699;DHT22;33708;49.466;11.176;2022-10-16T17:41:32;18.00;99.90
4699;DHT22;33708;49.466;11.176;2022-10-16T17:43:59;18.00;99.90
4699;DHT22;33708;49.466;11.176;2022-10-16T17:46:25;17.90;99.90
4699;DHT22;33708;49.466;11.176;2022-10-16T17:48:52;17.90;99.90
4699;DHT22;33708;49.466;11.176;2022-10-16T17:51:21;17.90;99.90
4699;DHT22;33708;49.466;11.176;2022-10-16T17:53:52;17.80;99.90
4699;DHT22;33708;49.466;11.176;2022-10-16T17:56:18;17.80;99.90